sensor_id;sensor_type;location;lat;lon;timestamp;P1;durP1;ratioP1;P2;durP2;ratioP2
7703;SDS011;3894;49.700;10.770;2023-04-25T00:02:21;6.18;;;2.13;;
7703;SDS011;3894;49.700;10.770;2023-04-25T00:04:47;6.50;;;2.53;;
7703;SDS011;3894;49.700;10.770;2023-04-25T00:07:13;6.60;;;2.33;;
7703;SDS011;3894;49.700;10.770;2023-04-25T00:09:39;5.20;;;2.20;;
7703;SDS011;3894;49.700;10.770;2023-04-25T00:12:05;6.80;;;2.17;;
7703;SDS011;3894;49.700;10.770;2023-04-25T00:14:31;7.50;;;2.47;;
7703;SDS011;3894;49.700;10.770;2023-04-25T00:16:59;5.70;;;2.05;;
7703;SDS011;3894;49.700;10.770;2023-04-25T00:19:25;7.35;;;2.85;;
7703;SDS011;3894;49.700;10.770;2023-04-25T00:21:53;6.30;;;2.70;;
7703;SDS011;3894;49.700;10.770;2023-04-25T00:24:21;5.45;;;2.00;;
7703;SDS011;3894;49.700;10.770;2023-04-25T00:26:47;6.57;;;1.92;;
7703;SDS011;3894;49.700;10.770;2023-04-25T00:29:12;6.07;;;2.30;;
7703;SDS011;3894;49.700;10.770;2023-04-25T00:31:38;6.20;;;2.58;;
7703;SDS011;3894;49.700;10.770;2023-04-25T00:34:03;5.18;;;1.80;;
7703;SDS011;3894;49.700;10.770;2023-04-25T00:36:29;5.68;;;2.15;;
7703;SDS011;3894;49.700;10.770;2023-04-25T00:38:55;7.18;;;2.45;;
7703;SDS011;3894;49.700;10.770;2023-04-25T00:41:21;6.95;;;2.17;;
7703;SDS011;3894;49.700;10.770;2023-04-25T00:43:48;5.43;;;1.63;;
7703;SDS011;3894;49.700;10.770;2023-04-25T00:46:14;5.07;;;1.65;;
7703;SDS011;3894;49.700;10.770;2023-04-25T00:48:40;5.70;;;2.30;;
7703;SDS011;3894;49.700;10.770;2023-04-25T00:51:05;7.18;;;2.28;;
7703;SDS011;3894;49.700;10.770;2023-04-25T00:53:31;5.38;;;1.98;;
7703;SDS011;3894;49.700;10.770;2023-04-25T00:55:57;5.50;;;1.67;;
7703;SDS011;3894;49.700;10.770;2023-04-25T00:58:23;6.32;;;1.25;;
7703;SDS011;3894;49.700;10.770;2023-04-25T01:00:50;5.80;;;2.05;;
7703;SDS011;3894;49.700;10.770;2023-04-25T01:03:17;5.32;;;1.77;;
7703;SDS011;3894;49.700;10.770;2023-04-25T01:08:10;4.82;;;2.00;;
7703;SDS011;3894;49.700;10.770;2023-04-25T01:10:36;4.15;;;1.25;;
7703;SDS011;3894;49.700;10.770;2023-04-25T01:13:02;6.03;;;2.22;;
7703;SDS011;3894;49.700;10.770;2023-04-25T01:15:28;4.68;;;1.33;;
7703;SDS011;3894;49.700;10.770;2023-04-25T01:17:54;5.68;;;1.90;;
7703;SDS011;3894;49.700;10.770;2023-04-25T01:20:23;7.43;;;2.20;;
7703;SDS011;3894;49.700;10.770;2023-04-25T01:22:50;5.43;;;1.70;;
7703;SDS011;3894;49.700;10.770;2023-04-25T01:25:17;5.85;;;2.08;;
7703;SDS011;3894;49.700;10.770;2023-04-25T01:27:43;6.78;;;2.05;;
7703;SDS011;3894;49.700;10.770;2023-04-25T01:30:09;7.07;;;2.17;;
7703;SDS011;3894;49.700;10.770;2023-04-25T01:32:35;5.63;;;1.83;;
7703;SDS011;3894;49.700;10.770;2023-04-25T01:35:06;6.43;;;2.38;;
7703;SDS011;3894;49.700;10.770;2023-04-25T01:37:35;6.15;;;2.10;;
7703;SDS011;3894;49.700;10.770;2023-04-25T01:40:16;5.93;;;2.00;;
7703;SDS011;3894;49.700;10.770;2023-04-25T01:45:42;6.10;;;2.22;;
7703;SDS011;3894;49.700;10.770;2023-04-25T01:48:17;5.40;;;2.00;;
7703;SDS011;3894;49.700;10.770;2023-04-25T01:50:43;8.00;;;2.88;;
7703;SDS011;3894;49.700;10.770;2023-04-25T01:53:23;6.85;;;2.22;;
7703;SDS011;3894;49.700;10.770;2023-04-25T01:56:03;6.90;;;2.50;;
7703;SDS011;3894;49.700;10.770;2023-04-25T02:01:44;6.68;;;2.25;;
7703;SDS011;3894;49.700;10.770;2023-04-25T02:04:18;6.85;;;2.42;;
7703;SDS011;3894;49.700;10.770;2023-04-25T02:06:46;7.03;;;2.47;;
7703;SDS011;3894;49.700;10.770;2023-04-25T02:12:13;6.80;;;1.88;;
7703;SDS011;3894;49.700;10.770;2023-04-25T02:14:39;6.90;;;2.13;;
7703;SDS011;3894;49.700;10.770;2023-04-25T02:17:10;7.95;;;2.60;;
7703;SDS011;3894;49.700;10.770;2023-04-25T02:19:58;8.57;;;2.80;;
7703;SDS011;3894;49.700;10.770;2023-04-25T02:22:30;8.07;;;2.88;;
7703;SDS011;3894;49.700;10.770;2023-04-25T02:25:45;7.15;;;2.30;;
7703;SDS011;3894;49.700;10.770;2023-04-25T02:30:59;6.57;;;2.53;;
7703;SDS011;3894;49.700;10.770;2023-04-25T02:33:25;7.20;;;2.25;;
7703;SDS011;3894;49.700;10.770;2023-04-25T02:35:56;6.57;;;2.30;;
7703;SDS011;3894;49.700;10.770;2023-04-25T02:38:45;7.97;;;2.50;;
7703;SDS011;3894;49.700;10.770;2023-04-25T02:41:16;8.18;;;2.45;;
7703;SDS011;3894;49.700;10.770;2023-04-25T02:43:48;6.25;;;2.10;;
7703;SDS011;3894;49.700;10.770;2023-04-25T02:46:14;6.53;;;2.22;;
7703;SDS011;3894;49.700;10.770;2023-04-25T02:48:40;6.53;;;2.40;;
7703;SDS011;3894;49.700;10.770;2023-04-25T02:51:08;6.38;;;2.72;;
7703;SDS011;3894;49.700;10.770;2023-04-25T02:56:32;6.63;;;2.30;;
7703;SDS011;3894;49.700;10.770;2023-04-25T02:58:58;6.50;;;2.50;;
7703;SDS011;3894;49.700;10.770;2023-04-25T03:01:24;8.35;;;2.78;;
7703;SDS011;3894;49.700;10.770;2023-04-25T03:04:04;6.88;;;2.38;;
7703;SDS011;3894;49.700;10.770;2023-04-25T03:06:35;6.40;;;2.40;;
7703;SDS011;3894;49.700;10.770;2023-04-25T03:09:01;7.18;;;2.50;;
7703;SDS011;3894;49.700;10.770;2023-04-25T03:11:34;6.72;;;2.35;;
7703;SDS011;3894;49.700;10.770;2023-04-25T03:14:03;8.65;;;3.28;;
7703;SDS011;3894;49.700;10.770;2023-04-25T03:16:45;6.72;;;2.45;;
7703;SDS011;3894;49.700;10.770;2023-04-25T03:22:02;8.55;;;2.58;;
7703;SDS011;3894;49.700;10.770;2023-04-25T03:24:34;9.95;;;3.25;;
7703;SDS011;3894;49.700;10.770;2023-04-25T03:30:14;6.97;;;2.42;;
7703;SDS011;3894;49.700;10.770;2023-04-25T03:32:40;7.22;;;3.17;;
7703;SDS011;3894;49.700;10.770;2023-04-25T03:35:06;6.90;;;2.50;;
7703;SDS011;3894;49.700;10.770;2023-04-25T03:37:38;8.70;;;3.20;;
7703;SDS011;3894;49.700;10.770;2023-04-25T03:40:05;8.65;;;2.80;;
7703;SDS011;3894;49.700;10.770;2023-04-25T03:42:34;8.05;;;3.05;;
7703;SDS011;3894;49.700;10.770;2023-04-25T03:45:00;8.82;;;3.08;;
7703;SDS011;3894;49.700;10.770;2023-04-25T03:47:26;7.53;;;2.72;;
7703;SDS011;3894;49.700;10.770;2023-04-25T03:49:52;7.30;;;3.15;;
7703;SDS011;3894;49.700;10.770;2023-04-25T03:52:18;5.38;;;1.90;;
7703;SDS011;3894;49.700;10.770;2023-04-25T03:54:50;7.03;;;2.58;;
7703;SDS011;3894;49.700;10.770;2023-04-25T03:57:17;6.15;;;2.53;;
7703;SDS011;3894;49.700;10.770;2023-04-25T03:59:45;6.65;;;2.35;;
7703;SDS011;3894;49.700;10.770;2023-04-25T04:02:11;7.60;;;3.30;;
7703;SDS011;3894;49.700;10.770;2023-04-25T04:04:37;8.05;;;2.67;;
7703;SDS011;3894;49.700;10.770;2023-04-25T04:09:39;7.35;;;2.50;;
7703;SDS011;3894;49.700;10.770;2023-04-25T04:12:06;6.93;;;2.92;;
7703;SDS011;3894;49.700;10.770;2023-04-25T04:14:35;7.55;;;3.10;;
7703;SDS011;3894;49.700;10.770;2023-04-25T04:17:05;8.23;;;2.25;;
7703;SDS011;3894;49.700;10.770;2023-04-25T04:19:45;6.32;;;2.35;;
7703;SDS011;3894;49.700;10.770;2023-04-25T04:22:11;7.13;;;2.45;;
7703;SDS011;3894;49.700;10.770;2023-04-25T04:24:37;7.32;;;2.05;;
7703;SDS011;3894;49.700;10.770;2023-04-25T04:27:08;7.72;;;3.25;;
7703;SDS011;3894;49.700;10.770;2023-04-25T04:29:37;6.43;;;2.47;;
7703;SDS011;3894;49.700;10.770;2023-04-25T04:32:07;6.05;;;2.10;;
7703;SDS011;3894;49.700;10.770;2023-04-25T04:34:42;7.38;;;2.55;;
7703;SDS011;3894;49.700;10.770;2023-04-25T04:37:08;6.78;;;2.03;;
7703;SDS011;3894;49.700;10.770;2023-04-25T04:39:35;5.50;;;1.45;;
7703;SDS011;3894;49.700;10.770;2023-04-25T04:42:01;7.43;;;1.95;;
7703;SDS011;3894;49.700;10.770;2023-04-25T04:44:38;5.53;;;1.80;;
7703;SDS011;3894;49.700;10.770;2023-04-25T04:47:05;6.22;;;1.95;;
7703;SDS011;3894;49.700;10.770;2023-04-25T04:49:34;7.03;;;2.25;;
7703;SDS011;3894;49.700;10.770;2023-04-25T04:52:01;7.30;;;2.53;;
7703;SDS011;3894;49.700;10.770;2023-04-25T04:54:27;6.07;;;2.22;;
7703;SDS011;3894;49.700;10.770;2023-04-25T04:56:53;6.10;;;2.67;;
7703;SDS011;3894;49.700;10.770;2023-04-25T04:59:19;6.90;;;2.63;;
7703;SDS011;3894;49.700;10.770;2023-04-25T05:01:46;6.22;;;2.28;;
7703;SDS011;3894;49.700;10.770;2023-04-25T05:04:12;6.97;;;2.17;;
7703;SDS011;3894;49.700;10.770;2023-04-25T05:06:38;9.02;;;3.38;;
7703;SDS011;3894;49.700;10.770;2023-04-25T05:09:15;6.13;;;2.30;;
7703;SDS011;3894;49.700;10.770;2023-04-25T05:11:42;6.82;;;2.38;;
7703;SDS011;3894;49.700;10.770;2023-04-25T05:14:08;5.47;;;2.00;;
7703;SDS011;3894;49.700;10.770;2023-04-25T05:16:33;6.38;;;2.50;;
7703;SDS011;3894;49.700;10.770;2023-04-25T05:19:00;5.78;;;2.28;;
7703;SDS011;3894;49.700;10.770;2023-04-25T05:21:26;4.80;;;1.73;;
7703;SDS011;3894;49.700;10.770;2023-04-25T05:23:53;5.32;;;1.65;;
7703;SDS011;3894;49.700;10.770;2023-04-25T05:26:19;8.43;;;2.40;;
7703;SDS011;3894;49.700;10.770;2023-04-25T05:28:51;5.25;;;1.58;;
7703;SDS011;3894;49.700;10.770;2023-04-25T05:31:17;6.35;;;2.30;;
7703;SDS011;3894;49.700;10.770;2023-04-25T05:33:46;8.82;;;2.35;;
7703;SDS011;3894;49.700;10.770;2023-04-25T05:36:11;7.60;;;1.80;;
7703;SDS011;3894;49.700;10.770;2023-04-25T05:38:43;6.43;;;2.28;;
7703;SDS011;3894;49.700;10.770;2023-04-25T05:41:12;7.35;;;2.45;;
7703;SDS011;3894;49.700;10.770;2023-04-25T05:43:39;6.75;;;2.22;;
7703;SDS011;3894;49.700;10.770;2023-04-25T05:46:10;7.47;;;2.08;;
7703;SDS011;3894;49.700;10.770;2023-04-25T05:48:39;6.85;;;2.35;;
7703;SDS011;3894;49.700;10.770;2023-04-25T05:51:11;6.90;;;2.25;;
7703;SDS011;3894;49.700;10.770;2023-04-25T05:53:43;8.95;;;2.92;;
7703;SDS011;3894;49.700;10.770;2023-04-25T05:56:10;8.20;;;3.60;;
7703;SDS011;3894;49.700;10.770;2023-04-25T05:58:39;8.68;;;2.97;;
7703;SDS011;3894;49.700;10.770;2023-04-25T06:03:45;6.15;;;2.30;;
7703;SDS011;3894;49.700;10.770;2023-04-25T06:06:16;7.20;;;2.67;;
7703;SDS011;3894;49.700;10.770;2023-04-25T06:08:44;8.82;;;3.33;;
7703;SDS011;3894;49.700;10.770;2023-04-25T06:11:10;6.88;;;2.95;;
7703;SDS011;3894;49.700;10.770;2023-04-25T06:13:47;8.95;;;3.58;;
7703;SDS011;3894;49.700;10.770;2023-04-25T06:16:18;9.05;;;3.95;;
7703;SDS011;3894;49.700;10.770;2023-04-25T06:18:44;9.13;;;4.10;;
7703;SDS011;3894;49.700;10.770;2023-04-25T06:21:10;9.90;;;4.47;;
7703;SDS011;3894;49.700;10.770;2023-04-25T06:23:44;10.23;;;4.30;;
7703;SDS011;3894;49.700;10.770;2023-04-25T06:26:10;11.35;;;4.50;;
7703;SDS011;3894;49.700;10.770;2023-04-25T06:28:50;11.00;;;4.47;;
7703;SDS011;3894;49.700;10.770;2023-04-25T06:31:16;10.40;;;3.92;;
7703;SDS011;3894;49.700;10.770;2023-04-25T06:33:42;9.52;;;4.20;;
7703;SDS011;3894;49.700;10.770;2023-04-25T06:36:08;9.63;;;4.10;;
7703;SDS011;3894;49.700;10.770;2023-04-25T06:38:41;10.55;;;4.50;;
7703;SDS011;3894;49.700;10.770;2023-04-25T06:41:07;11.52;;;4.88;;
7703;SDS011;3894;49.700;10.770;2023-04-25T06:43:33;10.45;;;4.30;;
7703;SDS011;3894;49.700;10.770;2023-04-25T06:46:04;10.35;;;4.57;;
7703;SDS011;3894;49.700;10.770;2023-04-25T06:48:30;11.85;;;4.32;;
7703;SDS011;3894;49.700;10.770;2023-04-25T06:50:56;9.70;;;4.20;;
7703;SDS011;3894;49.700;10.770;2023-04-25T06:53:25;8.85;;;3.97;;
7703;SDS011;3894;49.700;10.770;2023-04-25T06:55:51;10.45;;;4.47;;
7703;SDS011;3894;49.700;10.770;2023-04-25T06:58:20;12.60;;;4.28;;
7703;SDS011;3894;49.700;10.770;2023-04-25T07:00:50;11.85;;;5.00;;
7703;SDS011;3894;49.700;10.770;2023-04-25T07:03:16;10.18;;;3.63;;
7703;SDS011;3894;49.700;10.770;2023-04-25T07:05:48;8.43;;;4.10;;
7703;SDS011;3894;49.700;10.770;2023-04-25T07:08:15;7.82;;;3.35;;
7703;SDS011;3894;49.700;10.770;2023-04-25T07:10:42;9.43;;;4.25;;
7703;SDS011;3894;49.700;10.770;2023-04-25T07:13:08;9.80;;;3.45;;
7703;SDS011;3894;49.700;10.770;2023-04-25T07:15:42;10.73;;;4.00;;
7703;SDS011;3894;49.700;10.770;2023-04-25T07:18:13;8.25;;;2.08;;
7703;SDS011;3894;49.700;10.770;2023-04-25T07:20:38;7.55;;;2.33;;
7703;SDS011;3894;49.700;10.770;2023-04-25T07:23:07;8.18;;;2.45;;
7703;SDS011;3894;49.700;10.770;2023-04-25T07:25:33;13.05;;;4.15;;
7703;SDS011;3894;49.700;10.770;2023-04-25T07:28:00;7.50;;;3.17;;
7703;SDS011;3894;49.700;10.770;2023-04-25T07:30:25;10.40;;;3.83;;
7703;SDS011;3894;49.700;10.770;2023-04-25T07:32:51;9.73;;;4.20;;
7703;SDS011;3894;49.700;10.770;2023-04-25T07:35:17;9.18;;;3.33;;
7703;SDS011;3894;49.700;10.770;2023-04-25T07:37:43;9.82;;;4.30;;
7703;SDS011;3894;49.700;10.770;2023-04-25T07:40:08;9.20;;;3.55;;
7703;SDS011;3894;49.700;10.770;2023-04-25T07:42:34;8.27;;;3.72;;
7703;SDS011;3894;49.700;10.770;2023-04-25T07:45:00;9.18;;;3.15;;
7703;SDS011;3894;49.700;10.770;2023-04-25T07:47:26;11.40;;;4.35;;
7703;SDS011;3894;49.700;10.770;2023-04-25T07:49:52;9.57;;;3.63;;
7703;SDS011;3894;49.700;10.770;2023-04-25T07:52:17;9.38;;;3.53;;
7703;SDS011;3894;49.700;10.770;2023-04-25T07:54:43;7.78;;;3.58;;
7703;SDS011;3894;49.700;10.770;2023-04-25T07:57:09;6.97;;;2.72;;
7703;SDS011;3894;49.700;10.770;2023-04-25T07:59:34;7.00;;;3.03;;
7703;SDS011;3894;49.700;10.770;2023-04-25T08:02:00;7.70;;;2.80;;
7703;SDS011;3894;49.700;10.770;2023-04-25T08:04:26;6.90;;;3.03;;
7703;SDS011;3894;49.700;10.770;2023-04-25T08:06:51;9.60;;;3.22;;
7703;SDS011;3894;49.700;10.770;2023-04-25T08:09:18;5.40;;;2.20;;
7703;SDS011;3894;49.700;10.770;2023-04-25T08:11:44;7.40;;;1.95;;
7703;SDS011;3894;49.700;10.770;2023-04-25T08:14:11;3.60;;;1.02;;
7703;SDS011;3894;49.700;10.770;2023-04-25T08:16:37;5.13;;;1.50;;
7703;SDS011;3894;49.700;10.770;2023-04-25T08:19:03;5.63;;;2.00;;
7703;SDS011;3894;49.700;10.770;2023-04-25T08:21:29;6.25;;;1.98;;
7703;SDS011;3894;49.700;10.770;2023-04-25T08:23:56;7.10;;;2.75;;
7703;SDS011;3894;49.700;10.770;2023-04-25T08:29:10;7.20;;;2.30;;
7703;SDS011;3894;49.700;10.770;2023-04-25T08:31:36;6.57;;;2.67;;
7703;SDS011;3894;49.700;10.770;2023-04-25T08:34:02;7.30;;;2.50;;
7703;SDS011;3894;49.700;10.770;2023-04-25T08:36:27;6.07;;;2.15;;
7703;SDS011;3894;49.700;10.770;2023-04-25T08:38:53;7.55;;;2.30;;
7703;SDS011;3894;49.700;10.770;2023-04-25T08:41:19;5.45;;;1.13;;
7703;SDS011;3894;49.700;10.770;2023-04-25T08:43:45;3.25;;;0.80;;
7703;SDS011;3894;49.700;10.770;2023-04-25T08:46:15;4.50;;;0.88;;
7703;SDS011;3894;49.700;10.770;2023-04-25T08:48:43;4.50;;;0.52;;
7703;SDS011;3894;49.700;10.770;2023-04-25T08:51:10;4.88;;;0.68;;
7703;SDS011;3894;49.700;10.770;2023-04-25T08:53:41;5.45;;;0.80;;
7703;SDS011;3894;49.700;10.770;2023-04-25T08:56:07;4.47;;;0.80;;
7703;SDS011;3894;49.700;10.770;2023-04-25T08:58:35;3.20;;;0.93;;
7703;SDS011;3894;49.700;10.770;2023-04-25T09:01:01;4.72;;;0.93;;
7703;SDS011;3894;49.700;10.770;2023-04-25T09:03:28;6.53;;;1.00;;
7703;SDS011;3894;49.700;10.770;2023-04-25T09:05:54;3.80;;;0.77;;
7703;SDS011;3894;49.700;10.770;2023-04-25T09:08:20;4.63;;;0.77;;
7703;SDS011;3894;49.700;10.770;2023-04-25T09:10:46;3.20;;;0.60;;
7703;SDS011;3894;49.700;10.770;2023-04-25T09:13:14;4.05;;;1.05;;
7703;SDS011;3894;49.700;10.770;2023-04-25T09:15:50;3.47;;;0.80;;
7703;SDS011;3894;49.700;10.770;2023-04-25T09:20:54;7.10;;;0.70;;
7703;SDS011;3894;49.700;10.770;2023-04-25T09:23:21;5.82;;;1.27;;
7703;SDS011;3894;49.700;10.770;2023-04-25T09:25:52;5.57;;;1.08;;
7703;SDS011;3894;49.700;10.770;2023-04-25T09:28:25;4.75;;;1.52;;
7703;SDS011;3894;49.700;10.770;2023-04-25T09:30:54;6.00;;;0.93;;
7703;SDS011;3894;49.700;10.770;2023-04-25T09:33:31;4.95;;;1.10;;
7703;SDS011;3894;49.700;10.770;2023-04-25T09:38:31;2.83;;;0.43;;
7703;SDS011;3894;49.700;10.770;2023-04-25T09:40:57;4.18;;;1.40;;
7703;SDS011;3894;49.700;10.770;2023-04-25T09:43:23;3.58;;;1.05;;
7703;SDS011;3894;49.700;10.770;2023-04-25T09:45:50;4.22;;;0.60;;
7703;SDS011;3894;49.700;10.770;2023-04-25T09:50:44;4.20;;;0.63;;
7703;SDS011;3894;49.700;10.770;2023-04-25T09:53:13;3.20;;;0.65;;
7703;SDS011;3894;49.700;10.770;2023-04-25T09:55:38;3.15;;;0.55;;
7703;SDS011;3894;49.700;10.770;2023-04-25T09:58:05;5.00;;;0.52;;
7703;SDS011;3894;49.700;10.770;2023-04-25T10:00:33;2.97;;;0.50;;
7703;SDS011;3894;49.700;10.770;2023-04-25T10:03:03;3.42;;;0.68;;
7703;SDS011;3894;49.700;10.770;2023-04-25T10:05:30;3.22;;;0.60;;
7703;SDS011;3894;49.700;10.770;2023-04-25T10:08:00;5.25;;;0.60;;
7703;SDS011;3894;49.700;10.770;2023-04-25T10:10:28;3.20;;;0.50;;
7703;SDS011;3894;49.700;10.770;2023-04-25T10:12:57;3.55;;;0.50;;
7703;SDS011;3894;49.700;10.770;2023-04-25T10:15:23;3.50;;;0.50;;
7703;SDS011;3894;49.700;10.770;2023-04-25T10:17:49;2.75;;;0.40;;
7703;SDS011;3894;49.700;10.770;2023-04-25T10:20:15;4.25;;;0.70;;
7703;SDS011;3894;49.700;10.770;2023-04-25T10:22:42;4.18;;;0.60;;
7703;SDS011;3894;49.700;10.770;2023-04-25T10:25:09;3.17;;;0.60;;
7703;SDS011;3894;49.700;10.770;2023-04-25T10:27:36;4.07;;;0.57;;
7703;SDS011;3894;49.700;10.770;2023-04-25T10:30:07;3.15;;;0.68;;
7703;SDS011;3894;49.700;10.770;2023-04-25T10:32:36;3.70;;;0.50;;
7703;SDS011;3894;49.700;10.770;2023-04-25T10:37:37;3.60;;;0.40;;
7703;SDS011;3894;49.700;10.770;2023-04-25T10:40:08;3.45;;;0.73;;
7703;SDS011;3894;49.700;10.770;2023-04-25T10:42:35;4.32;;;0.50;;
7703;SDS011;3894;49.700;10.770;2023-04-25T10:45:01;3.13;;;0.43;;
7703;SDS011;3894;49.700;10.770;2023-04-25T10:47:35;5.88;;;0.70;;
7703;SDS011;3894;49.700;10.770;2023-04-25T10:50:05;2.65;;;0.50;;
7703;SDS011;3894;49.700;10.770;2023-04-25T10:52:32;2.65;;;0.30;;
7703;SDS011;3894;49.700;10.770;2023-04-25T10:54:58;1.30;;;0.10;;
7703;SDS011;3894;49.700;10.770;2023-04-25T11:00:00;1.17;;;0.10;;
7703;SDS011;3894;49.700;10.770;2023-04-25T11:02:30;1.90;;;0.20;;
7703;SDS011;3894;49.700;10.770;2023-04-25T11:04:55;3.00;;;0.68;;
7703;SDS011;3894;49.700;10.770;2023-04-25T11:10:14;2.92;;;0.55;;
7703;SDS011;3894;49.700;10.770;2023-04-25T11:12:39;2.80;;;0.60;;
7703;SDS011;3894;49.700;10.770;2023-04-25T11:15:05;2.78;;;0.60;;
7703;SDS011;3894;49.700;10.770;2023-04-25T11:17:32;2.00;;;0.55;;
7703;SDS011;3894;49.700;10.770;2023-04-25T11:19:58;3.00;;;0.45;;
7703;SDS011;3894;49.700;10.770;2023-04-25T11:22:25;4.80;;;0.60;;
7703;SDS011;3894;49.700;10.770;2023-04-25T11:24:52;3.50;;;0.35;;
7703;SDS011;3894;49.700;10.770;2023-04-25T11:27:18;4.28;;;0.60;;
7703;SDS011;3894;49.700;10.770;2023-04-25T11:29:43;3.60;;;0.52;;
7703;SDS011;3894;49.700;10.770;2023-04-25T11:32:09;2.80;;;0.50;;
7703;SDS011;3894;49.700;10.770;2023-04-25T11:34:35;3.13;;;0.47;;
7703;SDS011;3894;49.700;10.770;2023-04-25T11:37:01;2.03;;;0.30;;
7703;SDS011;3894;49.700;10.770;2023-04-25T11:39:27;2.60;;;0.32;;
7703;SDS011;3894;49.700;10.770;2023-04-25T11:41:53;2.20;;;0.35;;
7703;SDS011;3894;49.700;10.770;2023-04-25T11:44:20;2.53;;;0.50;;
7703;SDS011;3894;49.700;10.770;2023-04-25T11:46:46;5.47;;;1.23;;
7703;SDS011;3894;49.700;10.770;2023-04-25T11:49:12;4.13;;;0.50;;
7703;SDS011;3894;49.700;10.770;2023-04-25T11:51:39;2.50;;;0.50;;
7703;SDS011;3894;49.700;10.770;2023-04-25T11:54:05;2.95;;;0.50;;
7703;SDS011;3894;49.700;10.770;2023-04-25T11:56:30;3.65;;;0.88;;
7703;SDS011;3894;49.700;10.770;2023-04-25T11:59:01;2.50;;;0.40;;
7703;SDS011;3894;49.700;10.770;2023-04-25T12:01:31;4.43;;;0.40;;
7703;SDS011;3894;49.700;10.770;2023-04-25T12:03:58;3.33;;;0.60;;
7703;SDS011;3894;49.700;10.770;2023-04-25T12:06:36;3.20;;;0.63;;
7703;SDS011;3894;49.700;10.770;2023-04-25T12:09:06;3.85;;;0.60;;
7703;SDS011;3894;49.700;10.770;2023-04-25T12:11:40;3.90;;;0.60;;
7703;SDS011;3894;49.700;10.770;2023-04-25T12:14:10;5.55;;;0.40;;
7703;SDS011;3894;49.700;10.770;2023-04-25T12:16:45;5.85;;;0.73;;
7703;SDS011;3894;49.700;10.770;2023-04-25T12:19:15;7.15;;;1.25;;
7703;SDS011;3894;49.700;10.770;2023-04-25T12:21:41;2.60;;;0.43;;
7703;SDS011;3894;49.700;10.770;2023-04-25T12:24:17;3.63;;;0.70;;
7703;SDS011;3894;49.700;10.770;2023-04-25T12:26:49;3.65;;;0.75;;
7703;SDS011;3894;49.700;10.770;2023-04-25T12:29:20;2.80;;;0.50;;
7703;SDS011;3894;49.700;10.770;2023-04-25T12:31:47;4.55;;;0.70;;
7703;SDS011;3894;49.700;10.770;2023-04-25T12:34:14;4.45;;;0.90;;
7703;SDS011;3894;49.700;10.770;2023-04-25T12:36:39;4.85;;;1.15;;
7703;SDS011;3894;49.700;10.770;2023-04-25T12:39:05;3.80;;;0.70;;
7703;SDS011;3894;49.700;10.770;2023-04-25T12:41:31;3.33;;;0.52;;
7703;SDS011;3894;49.700;10.770;2023-04-25T12:43:57;3.78;;;0.73;;
7703;SDS011;3894;49.700;10.770;2023-04-25T12:46:22;4.63;;;1.00;;
7703;SDS011;3894;49.700;10.770;2023-04-25T12:48:48;3.58;;;0.60;;
7703;SDS011;3894;49.700;10.770;2023-04-25T12:51:14;3.05;;;0.60;;
7703;SDS011;3894;49.700;10.770;2023-04-25T12:53:40;3.78;;;0.70;;
7703;SDS011;3894;49.700;10.770;2023-04-25T12:56:08;3.17;;;0.63;;
7703;SDS011;3894;49.700;10.770;2023-04-25T12:58:34;3.45;;;0.70;;
7703;SDS011;3894;49.700;10.770;2023-04-25T13:01:00;3.30;;;0.75;;
7703;SDS011;3894;49.700;10.770;2023-04-25T13:03:26;5.05;;;1.05;;
7703;SDS011;3894;49.700;10.770;2023-04-25T13:05:51;4.05;;;0.77;;
7703;SDS011;3894;49.700;10.770;2023-04-25T13:08:20;3.47;;;0.77;;
7703;SDS011;3894;49.700;10.770;2023-04-25T13:10:47;4.00;;;0.80;;
7703;SDS011;3894;49.700;10.770;2023-04-25T13:13:12;4.22;;;0.85;;
7703;SDS011;3894;49.700;10.770;2023-04-25T13:15:38;5.47;;;1.10;;
7703;SDS011;3894;49.700;10.770;2023-04-25T13:18:04;3.20;;;0.85;;
7703;SDS011;3894;49.700;10.770;2023-04-25T13:20:32;4.13;;;0.80;;
7703;SDS011;3894;49.700;10.770;2023-04-25T13:22:58;3.40;;;0.80;;
7703;SDS011;3894;49.700;10.770;2023-04-25T13:25:23;3.53;;;0.77;;
7703;SDS011;3894;49.700;10.770;2023-04-25T13:27:49;3.83;;;1.02;;
7703;SDS011;3894;49.700;10.770;2023-04-25T13:30:15;5.82;;;1.55;;
7703;SDS011;3894;49.700;10.770;2023-04-25T13:32:41;4.53;;;0.50;;
7703;SDS011;3894;49.700;10.770;2023-04-25T13:35:07;6.38;;;1.05;;
7703;SDS011;3894;49.700;10.770;2023-04-25T13:37:37;4.25;;;0.90;;
7703;SDS011;3894;49.700;10.770;2023-04-25T13:40:04;3.25;;;0.70;;
7703;SDS011;3894;49.700;10.770;2023-04-25T13:42:33;3.85;;;0.70;;
7703;SDS011;3894;49.700;10.770;2023-04-25T13:44:59;3.38;;;0.57;;
7703;SDS011;3894;49.700;10.770;2023-04-25T13:47:25;4.47;;;0.70;;
7703;SDS011;3894;49.700;10.770;2023-04-25T13:49:51;5.20;;;0.98;;
7703;SDS011;3894;49.700;10.770;2023-04-25T13:52:17;2.97;;;0.52;;
7703;SDS011;3894;49.700;10.770;2023-04-25T13:54:43;4.30;;;1.02;;
7703;SDS011;3894;49.700;10.770;2023-04-25T13:57:08;4.32;;;1.20;;
7703;SDS011;3894;49.700;10.770;2023-04-25T13:59:35;2.60;;;0.63;;
7703;SDS011;3894;49.700;10.770;2023-04-25T14:02:01;3.00;;;0.60;;
7703;SDS011;3894;49.700;10.770;2023-04-25T14:04:27;5.05;;;1.00;;
7703;SDS011;3894;49.700;10.770;2023-04-25T14:06:53;4.03;;;0.85;;
7703;SDS011;3894;49.700;10.770;2023-04-25T14:11:48;4.60;;;0.80;;
7703;SDS011;3894;49.700;10.770;2023-04-25T14:14:14;3.42;;;0.75;;
7703;SDS011;3894;49.700;10.770;2023-04-25T14:16:41;3.53;;;0.57;;
7703;SDS011;3894;49.700;10.770;2023-04-25T14:19:06;4.05;;;0.77;;
7703;SDS011;3894;49.700;10.770;2023-04-25T14:24:00;3.13;;;0.77;;
7703;SDS011;3894;49.700;10.770;2023-04-25T14:26:25;4.82;;;0.50;;
7703;SDS011;3894;49.700;10.770;2023-04-25T14:28:51;5.47;;;0.80;;
7703;SDS011;3894;49.700;10.770;2023-04-25T14:31:19;3.10;;;0.80;;
7703;SDS011;3894;49.700;10.770;2023-04-25T14:33:46;4.13;;;1.00;;
7703;SDS011;3894;49.700;10.770;2023-04-25T14:36:15;4.93;;;0.70;;
7703;SDS011;3894;49.700;10.770;2023-04-25T14:38:40;4.00;;;0.80;;
7703;SDS011;3894;49.700;10.770;2023-04-25T14:41:06;3.60;;;0.80;;
7703;SDS011;3894;49.700;10.770;2023-04-25T14:43:35;4.82;;;1.77;;
7703;SDS011;3894;49.700;10.770;2023-04-25T14:46:01;6.07;;;1.83;;
7703;SDS011;3894;49.700;10.770;2023-04-25T14:48:27;6.45;;;2.15;;
7703;SDS011;3894;49.700;10.770;2023-04-25T14:50:56;6.07;;;1.60;;
7703;SDS011;3894;49.700;10.770;2023-04-25T14:53:23;4.05;;;1.08;;
7703;SDS011;3894;49.700;10.770;2023-04-25T14:55:48;5.10;;;1.60;;
7703;SDS011;3894;49.700;10.770;2023-04-25T14:58:14;5.00;;;1.27;;
7703;SDS011;3894;49.700;10.770;2023-04-25T15:00:42;5.05;;;1.25;;
7703;SDS011;3894;49.700;10.770;2023-04-25T15:03:09;6.20;;;1.20;;
7703;SDS011;3894;49.700;10.770;2023-04-25T15:05:36;5.72;;;1.58;;
7703;SDS011;3894;49.700;10.770;2023-04-25T15:08:02;3.30;;;0.73;;
7703;SDS011;3894;49.700;10.770;2023-04-25T15:10:31;3.47;;;0.73;;
7703;SDS011;3894;49.700;10.770;2023-04-25T15:12:56;3.75;;;0.70;;
7703;SDS011;3894;49.700;10.770;2023-04-25T15:15:22;5.55;;;1.15;;
7703;SDS011;3894;49.700;10.770;2023-04-25T15:17:48;9.35;;;1.45;;
7703;SDS011;3894;49.700;10.770;2023-04-25T15:20:17;5.57;;;1.40;;
7703;SDS011;3894;49.700;10.770;2023-04-25T15:22:43;4.30;;;0.95;;
7703;SDS011;3894;49.700;10.770;2023-04-25T15:25:13;3.42;;;0.50;;
7703;SDS011;3894;49.700;10.770;2023-04-25T15:27:40;3.38;;;0.70;;
7703;SDS011;3894;49.700;10.770;2023-04-25T15:30:08;4.30;;;1.00;;
7703;SDS011;3894;49.700;10.770;2023-04-25T15:32:40;3.50;;;0.73;;
7703;SDS011;3894;49.700;10.770;2023-04-25T15:35:06;4.32;;;1.50;;
7703;SDS011;3894;49.700;10.770;2023-04-25T15:37:35;6.13;;;1.05;;
7703;SDS011;3894;49.700;10.770;2023-04-25T15:40:05;3.60;;;0.90;;
7703;SDS011;3894;49.700;10.770;2023-04-25T15:42:34;5.28;;;1.40;;
7703;SDS011;3894;49.700;10.770;2023-04-25T15:45:07;5.32;;;0.68;;
7703;SDS011;3894;49.700;10.770;2023-04-25T15:47:34;2.47;;;0.50;;
7703;SDS011;3894;49.700;10.770;2023-04-25T15:50:01;3.20;;;0.57;;
7703;SDS011;3894;49.700;10.770;2023-04-25T15:52:26;3.20;;;0.75;;
7703;SDS011;3894;49.700;10.770;2023-04-25T15:54:52;4.03;;;0.80;;
7703;SDS011;3894;49.700;10.770;2023-04-25T15:57:18;3.42;;;0.90;;